sensor_id;sensor_type;location;lat;lon;timestamp;P1;durP1;ratioP1;P2;durP2;ratioP2
239;SDS011;104;53.590;10.004;2022-11-18T00:01:09;43.63;;;21.20;;
239;SDS011;104;53.590;10.004;2022-11-18T00:03:41;44.57;;;21.67;;
239;SDS011;104;53.590;10.004;2022-11-18T00:06:09;48.07;;;22.10;;
239;SDS011;104;53.590;10.004;2022-11-18T00:08:38;40.00;;;20.97;;
239;SDS011;104;53.590;10.004;2022-11-18T00:11:05;45.53;;;19.70;;
239;SDS011;104;53.590;10.004;2022-11-18T00:13:33;42.70;;;21.40;;
239;SDS011;104;53.590;10.004;2022-11-18T00:16:18;51.57;;;22.60;;
239;SDS011;104;53.590;10.004;2022-11-18T00:18:46;46.37;;;21.80;;
239;SDS011;104;53.590;10.004;2022-11-18T00:21:14;54.00;;;26.20;;
239;SDS011;104;53.590;10.004;2022-11-18T00:23:41;46.10;;;22.60;;
239;SDS011;104;53.590;10.004;2022-11-18T00:26:09;46.17;;;21.97;;
239;SDS011;104;53.590;10.004;2022-11-18T00:28:37;44.70;;;21.70;;
239;SDS011;104;53.590;10.004;2022-11-18T00:31:06;48.93;;;21.10;;
239;SDS011;104;53.590;10.004;2022-11-18T00:33:34;43.73;;;21.30;;
239;SDS011;104;53.590;10.004;2022-11-18T00:36:03;43.70;;;21.93;;
239;SDS011;104;53.590;10.004;2022-11-18T00:38:31;43.90;;;20.63;;
239;SDS011;104;53.590;10.004;2022-11-18T00:40:59;45.90;;;21.53;;
239;SDS011;104;53.590;10.004;2022-11-18T00:43:26;44.97;;;21.63;;
239;SDS011;104;53.590;10.004;2022-11-18T00:45:53;42.03;;;19.53;;
239;SDS011;104;53.590;10.004;2022-11-18T00:48:20;45.20;;;21.43;;
239;SDS011;104;53.590;10.004;2022-11-18T00:50:47;50.07;;;22.33;;
239;SDS011;104;53.590;10.004;2022-11-18T00:53:16;49.83;;;21.47;;
239;SDS011;104;53.590;10.004;2022-11-18T00:55:44;42.27;;;21.40;;
239;SDS011;104;53.590;10.004;2022-11-18T00:58:11;46.37;;;21.83;;
239;SDS011;104;53.590;10.004;2022-11-18T01:00:39;44.30;;;21.43;;
239;SDS011;104;53.590;10.004;2022-11-18T01:03:07;42.40;;;20.03;;
239;SDS011;104;53.590;10.004;2022-11-18T01:05:34;46.37;;;21.77;;
239;SDS011;104;53.590;10.004;2022-11-18T01:08:02;45.10;;;21.60;;
239;SDS011;104;53.590;10.004;2022-11-18T01:10:31;42.00;;;20.73;;
239;SDS011;104;53.590;10.004;2022-11-18T01:12:58;51.57;;;22.30;;
239;SDS011;104;53.590;10.004;2022-11-18T01:15:43;52.03;;;24.40;;
239;SDS011;104;53.590;10.004;2022-11-18T01:18:11;43.77;;;19.40;;
239;SDS011;104;53.590;10.004;2022-11-18T01:20:38;50.60;;;20.97;;
239;SDS011;104;53.590;10.004;2022-11-18T01:23:06;50.10;;;21.03;;
239;SDS011;104;53.590;10.004;2022-11-18T01:25:35;46.60;;;20.77;;
239;SDS011;104;53.590;10.004;2022-11-18T01:28:03;45.73;;;21.10;;
239;SDS011;104;53.590;10.004;2022-11-18T01:30:32;44.30;;;21.10;;
239;SDS011;104;53.590;10.004;2022-11-18T01:33:00;46.33;;;21.27;;
239;SDS011;104;53.590;10.004;2022-11-18T01:35:28;43.43;;;20.90;;
239;SDS011;104;53.590;10.004;2022-11-18T01:37:55;44.80;;;21.20;;
239;SDS011;104;53.590;10.004;2022-11-18T01:40:22;40.87;;;20.23;;
239;SDS011;104;53.590;10.004;2022-11-18T01:42:51;45.37;;;21.77;;
239;SDS011;104;53.590;10.004;2022-11-18T01:45:24;44.47;;;21.00;;
239;SDS011;104;53.590;10.004;2022-11-18T01:47:58;45.10;;;20.40;;
239;SDS011;104;53.590;10.004;2022-11-18T01:50:29;44.17;;;22.20;;
239;SDS011;104;53.590;10.004;2022-11-18T04:56:19;61.77;;;24.83;;
239;SDS011;104;53.590;10.004;2022-11-18T04:58:46;52.10;;;24.37;;
239;SDS011;104;53.590;10.004;2022-11-18T05:01:14;59.03;;;24.80;;
239;SDS011;104;53.590;10.004;2022-11-18T05:03:41;53.83;;;23.93;;
239;SDS011;104;53.590;10.004;2022-11-18T05:06:08;60.97;;;24.47;;
239;SDS011;104;53.590;10.004;2022-11-18T05:08:36;58.80;;;23.37;;
239;SDS011;104;53.590;10.004;2022-11-18T05:11:04;62.83;;;26.67;;
239;SDS011;104;53.590;10.004;2022-11-18T05:13:47;55.27;;;22.70;;
239;SDS011;104;53.590;10.004;2022-11-18T05:16:16;60.33;;;23.90;;
239;SDS011;104;53.590;10.004;2022-11-18T05:18:45;56.00;;;23.97;;
239;SDS011;104;53.590;10.004;2022-11-18T05:21:13;51.17;;;23.00;;
239;SDS011;104;53.590;10.004;2022-11-18T05:23:41;55.17;;;23.10;;
239;SDS011;104;53.590;10.004;2022-11-18T05:26:09;56.37;;;23.50;;
239;SDS011;104;53.590;10.004;2022-11-18T05:28:36;51.37;;;23.13;;
239;SDS011;104;53.590;10.004;2022-11-18T05:31:06;55.50;;;23.97;;
239;SDS011;104;53.590;10.004;2022-11-18T05:33:34;53.43;;;23.67;;
239;SDS011;104;53.590;10.004;2022-11-18T05:36:02;53.63;;;24.50;;
239;SDS011;104;53.590;10.004;2022-11-18T05:38:30;49.40;;;22.33;;
239;SDS011;104;53.590;10.004;2022-11-18T05:40:58;52.50;;;21.63;;
239;SDS011;104;53.590;10.004;2022-11-18T05:43:25;49.53;;;23.37;;
239;SDS011;104;53.590;10.004;2022-11-18T05:45:51;56.67;;;24.20;;
239;SDS011;104;53.590;10.004;2022-11-18T05:48:21;56.27;;;23.83;;
239;SDS011;104;53.590;10.004;2022-11-18T05:50:49;47.73;;;21.83;;
239;SDS011;104;53.590;10.004;2022-11-18T05:53:19;51.00;;;22.10;;
239;SDS011;104;53.590;10.004;2022-11-18T05:55:48;51.80;;;22.87;;
239;SDS011;104;53.590;10.004;2022-11-18T05:58:19;45.37;;;20.70;;
239;SDS011;104;53.590;10.004;2022-11-18T06:00:48;48.80;;;21.00;;
239;SDS011;104;53.590;10.004;2022-11-18T06:03:23;56.17;;;22.60;;
239;SDS011;104;53.590;10.004;2022-11-18T06:05:54;46.17;;;20.87;;
239;SDS011;104;53.590;10.004;2022-11-18T06:08:23;40.60;;;20.20;;
239;SDS011;104;53.590;10.004;2022-11-18T06:10:57;36.57;;;18.50;;
239;SDS011;104;53.590;10.004;2022-11-18T06:13:27;34.67;;;18.57;;
239;SDS011;104;53.590;10.004;2022-11-18T06:15:56;47.03;;;21.30;;
239;SDS011;104;53.590;10.004;2022-11-18T06:18:26;51.00;;;19.27;;
239;SDS011;104;53.590;10.004;2022-11-18T06:20:55;37.17;;;18.80;;
239;SDS011;104;53.590;10.004;2022-11-18T06:23:25;43.83;;;19.50;;
239;SDS011;104;53.590;10.004;2022-11-18T06:25:53;38.80;;;19.03;;
239;SDS011;104;53.590;10.004;2022-11-18T06:28:30;40.23;;;19.03;;
239;SDS011;104;53.590;10.004;2022-11-18T06:31:04;42.97;;;20.07;;
239;SDS011;104;53.590;10.004;2022-11-18T06:33:46;34.63;;;17.80;;
239;SDS011;104;53.590;10.004;2022-11-18T06:36:14;35.27;;;17.20;;
239;SDS011;104;53.590;10.004;2022-11-18T06:38:48;33.70;;;16.80;;
239;SDS011;104;53.590;10.004;2022-11-18T06:41:15;38.87;;;18.80;;
239;SDS011;104;53.590;10.004;2022-11-18T06:43:42;34.30;;;18.10;;
239;SDS011;104;53.590;10.004;2022-11-18T06:46:13;38.33;;;17.77;;
239;SDS011;104;53.590;10.004;2022-11-18T06:49:00;35.30;;;17.70;;
239;SDS011;104;53.590;10.004;2022-11-18T06:51:28;36.40;;;17.83;;
239;SDS011;104;53.590;10.004;2022-11-18T06:53:55;35.83;;;17.10;;
239;SDS011;104;53.590;10.004;2022-11-18T06:56:23;28.63;;;15.50;;
239;SDS011;104;53.590;10.004;2022-11-18T06:58:53;31.97;;;16.33;;
239;SDS011;104;53.590;10.004;2022-11-18T07:01:22;33.43;;;17.50;;
239;SDS011;104;53.590;10.004;2022-11-18T07:03:50;38.17;;;16.70;;
239;SDS011;104;53.590;10.004;2022-11-18T07:06:20;30.17;;;16.07;;
239;SDS011;104;53.590;10.004;2022-11-18T07:08:49;34.60;;;15.67;;
239;SDS011;104;53.590;10.004;2022-11-18T07:11:17;26.03;;;14.50;;
239;SDS011;104;53.590;10.004;2022-11-18T07:13:46;36.07;;;17.20;;
239;SDS011;104;53.590;10.004;2022-11-18T07:16:14;28.20;;;15.43;;
239;SDS011;104;53.590;10.004;2022-11-18T07:18:43;35.97;;;16.37;;
239;SDS011;104;53.590;10.004;2022-11-18T07:21:12;32.83;;;15.30;;
239;SDS011;104;53.590;10.004;2022-11-18T07:23:42;91.97;;;41.60;;
239;SDS011;104;53.590;10.004;2022-11-18T07:26:09;26.37;;;15.20;;
239;SDS011;104;53.590;10.004;2022-11-18T07:28:37;35.73;;;16.50;;
239;SDS011;104;53.590;10.004;2022-11-18T07:31:07;34.13;;;16.60;;
239;SDS011;104;53.590;10.004;2022-11-18T07:33:36;32.67;;;14.90;;
239;SDS011;104;53.590;10.004;2022-11-18T07:36:05;32.30;;;16.23;;
239;SDS011;104;53.590;10.004;2022-11-18T07:38:34;27.73;;;15.13;;
239;SDS011;104;53.590;10.004;2022-11-18T07:41:03;29.70;;;15.50;;
239;SDS011;104;53.590;10.004;2022-11-18T07:43:32;30.40;;;15.10;;
239;SDS011;104;53.590;10.004;2022-11-18T07:46:07;33.60;;;17.17;;
239;SDS011;104;53.590;10.004;2022-11-18T07:48:34;29.43;;;15.47;;
239;SDS011;104;53.590;10.004;2022-11-18T07:51:02;32.20;;;15.40;;
239;SDS011;104;53.590;10.004;2022-11-18T07:53:29;26.33;;;14.50;;
239;SDS011;104;53.590;10.004;2022-11-18T07:55:57;32.70;;;16.53;;
239;SDS011;104;53.590;10.004;2022-11-18T07:58:26;36.20;;;17.90;;
239;SDS011;104;53.590;10.004;2022-11-18T08:00:53;30.87;;;16.70;;
239;SDS011;104;53.590;10.004;2022-11-18T08:03:23;42.10;;;16.00;;
239;SDS011;104;53.590;10.004;2022-11-18T08:05:51;32.80;;;15.40;;
239;SDS011;104;53.590;10.004;2022-11-18T08:08:19;26.10;;;14.70;;
239;SDS011;104;53.590;10.004;2022-11-18T08:10:46;28.47;;;14.20;;
239;SDS011;104;53.590;10.004;2022-11-18T08:13:14;31.00;;;15.57;;
239;SDS011;104;53.590;10.004;2022-11-18T08:15:43;28.10;;;16.30;;
239;SDS011;104;53.590;10.004;2022-11-18T08:18:10;26.60;;;14.90;;
239;SDS011;104;53.590;10.004;2022-11-18T08:20:38;29.27;;;16.30;;
239;SDS011;104;53.590;10.004;2022-11-18T08:23:05;37.77;;;18.40;;
239;SDS011;104;53.590;10.004;2022-11-18T08:25:32;24.60;;;13.90;;
239;SDS011;104;53.590;10.004;2022-11-18T08:28:00;40.60;;;20.93;;
239;SDS011;104;53.590;10.004;2022-11-18T08:30:27;27.27;;;15.70;;
239;SDS011;104;53.590;10.004;2022-11-18T08:32:58;25.93;;;14.30;;
239;SDS011;104;53.590;10.004;2022-11-18T08:35:28;34.70;;;17.00;;
239;SDS011;104;53.590;10.004;2022-11-18T08:38:01;28.53;;;14.50;;
239;SDS011;104;53.590;10.004;2022-11-18T08:40:45;23.40;;;13.37;;
239;SDS011;104;53.590;10.004;2022-11-18T08:43:14;28.40;;;15.60;;
239;SDS011;104;53.590;10.004;2022-11-18T08:46:21;17.57;;;11.70;;
239;SDS011;104;53.590;10.004;2022-11-18T08:48:52;18.07;;;11.60;;
239;SDS011;104;53.590;10.004;2022-11-18T08:51:21;19.23;;;12.03;;
239;SDS011;104;53.590;10.004;2022-11-18T08:54:02;28.27;;;12.43;;
239;SDS011;104;53.590;10.004;2022-11-18T08:56:40;17.73;;;10.57;;
239;SDS011;104;53.590;10.004;2022-11-18T08:59:21;23.07;;;11.70;;
239;SDS011;104;53.590;10.004;2022-11-18T09:01:49;21.50;;;11.30;;
239;SDS011;104;53.590;10.004;2022-11-18T09:04:34;15.50;;;9.83;;
239;SDS011;104;53.590;10.004;2022-11-18T09:07:09;16.30;;;9.83;;
239;SDS011;104;53.590;10.004;2022-11-18T09:09:41;17.13;;;9.13;;
239;SDS011;104;53.590;10.004;2022-11-18T09:12:09;20.73;;;8.67;;
239;SDS011;104;53.590;10.004;2022-11-18T09:14:40;13.40;;;7.83;;
239;SDS011;104;53.590;10.004;2022-11-18T09:17:21;17.67;;;8.17;;
239;SDS011;104;53.590;10.004;2022-11-18T09:19:55;11.37;;;7.43;;
239;SDS011;104;53.590;10.004;2022-11-18T09:22:27;18.00;;;7.27;;
239;SDS011;104;53.590;10.004;2022-11-18T09:25:08;16.33;;;7.93;;
239;SDS011;104;53.590;10.004;2022-11-18T09:27:49;8.27;;;5.60;;
239;SDS011;104;53.590;10.004;2022-11-18T09:30:19;9.10;;;6.07;;
239;SDS011;104;53.590;10.004;2022-11-18T09:32:52;9.23;;;6.00;;
239;SDS011;104;53.590;10.004;2022-11-18T09:35:35;6.73;;;4.60;;
239;SDS011;104;53.590;10.004;2022-11-18T09:38:16;9.57;;;4.53;;
239;SDS011;104;53.590;10.004;2022-11-18T09:40:49;5.87;;;4.37;;
239;SDS011;104;53.590;10.004;2022-11-18T09:43:22;11.30;;;4.80;;
239;SDS011;104;53.590;10.004;2022-11-18T09:46:07;10.27;;;5.20;;
239;SDS011;104;53.590;10.004;2022-11-18T09:48:54;8.03;;;4.93;;
239;SDS011;104;53.590;10.004;2022-11-18T09:51:53;6.40;;;4.37;;
239;SDS011;104;53.590;10.004;2022-11-18T09:54:22;10.07;;;5.43;;
239;SDS011;104;53.590;10.004;2022-11-18T09:57:08;4.90;;;3.90;;
239;SDS011;104;53.590;10.004;2022-11-18T09:59:39;3.77;;;3.17;;
239;SDS011;104;53.590;10.004;2022-11-18T10:02:17;3.37;;;3.20;;
239;SDS011;104;53.590;10.004;2022-11-18T10:05:17;4.77;;;3.20;;
239;SDS011;104;53.590;10.004;2022-11-18T10:07:57;4.30;;;2.80;;
239;SDS011;104;53.590;10.004;2022-11-18T10:10:32;13.80;;;3.23;;
239;SDS011;104;53.590;10.004;2022-11-18T10:13:07;2.57;;;2.37;;
239;SDS011;104;53.590;10.004;2022-11-18T10:15:41;2.80;;;2.70;;
239;SDS011;104;53.590;10.004;2022-11-18T10:18:20;6.80;;;4.20;;
239;SDS011;104;53.590;10.004;2022-11-18T10:20:54;4.37;;;3.13;;
239;SDS011;104;53.590;10.004;2022-11-18T10:23:27;3.40;;;2.90;;
239;SDS011;104;53.590;10.004;2022-11-18T10:25:59;6.73;;;3.00;;
239;SDS011;104;53.590;10.004;2022-11-18T10:28:27;6.43;;;3.07;;
239;SDS011;104;53.590;10.004;2022-11-18T10:31:03;3.13;;;2.70;;
239;SDS011;104;53.590;10.004;2022-11-18T10:33:33;4.10;;;2.63;;
239;SDS011;104;53.590;10.004;2022-11-18T10:36:08;3.60;;;2.97;;
239;SDS011;104;53.590;10.004;2022-11-18T10:38:39;4.67;;;2.30;;
239;SDS011;104;53.590;10.004;2022-11-18T10:41:10;3.60;;;2.63;;
239;SDS011;104;53.590;10.004;2022-11-18T10:43:42;4.60;;;3.10;;
239;SDS011;104;53.590;10.004;2022-11-18T10:46:17;4.60;;;2.83;;
239;SDS011;104;53.590;10.004;2022-11-18T10:49:11;4.90;;;3.50;;
239;SDS011;104;53.590;10.004;2022-11-18T10:51:43;2.30;;;2.10;;
239;SDS011;104;53.590;10.004;2022-11-18T10:54:17;3.10;;;2.57;;
239;SDS011;104;53.590;10.004;2022-11-18T10:56:59;2.70;;;2.20;;
239;SDS011;104;53.590;10.004;2022-11-18T10:59:45;9.60;;;3.53;;
239;SDS011;104;53.590;10.004;2022-11-18T11:02:16;2.67;;;2.40;;
239;SDS011;104;53.590;10.004;2022-11-18T11:04:46;10.10;;;3.33;;
239;SDS011;104;53.590;10.004;2022-11-18T11:07:18;3.53;;;2.73;;
239;SDS011;104;53.590;10.004;2022-11-18T11:09:59;3.43;;;3.07;;
239;SDS011;104;53.590;10.004;2022-11-18T11:12:27;5.23;;;2.87;;
239;SDS011;104;53.590;10.004;2022-11-18T11:15:00;18.40;;;4.63;;
239;SDS011;104;53.590;10.004;2022-11-18T11:17:30;8.70;;;3.50;;
239;SDS011;104;53.590;10.004;2022-11-18T11:20:03;3.00;;;2.53;;
239;SDS011;104;53.590;10.004;2022-11-18T11:22:32;3.87;;;2.70;;
239;SDS011;104;53.590;10.004;2022-11-18T11:25:16;4.13;;;3.03;;
239;SDS011;104;53.590;10.004;2022-11-18T11:27:51;5.27;;;3.10;;
239;SDS011;104;53.590;10.004;2022-11-18T11:30:27;3.40;;;2.93;;
239;SDS011;104;53.590;10.004;2022-11-18T11:33:14;10.83;;;3.90;;
239;SDS011;104;53.590;10.004;2022-11-18T11:36:03;6.60;;;3.70;;
239;SDS011;104;53.590;10.004;2022-11-18T11:38:51;4.00;;;2.73;;
239;SDS011;104;53.590;10.004;2022-11-18T11:41:29;4.40;;;2.93;;
239;SDS011;104;53.590;10.004;2022-11-18T11:44:06;4.70;;;2.90;;
239;SDS011;104;53.590;10.004;2022-11-18T11:46:39;4.60;;;2.93;;
239;SDS011;104;53.590;10.004;2022-11-18T11:49:36;2.90;;;2.80;;
239;SDS011;104;53.590;10.004;2022-11-18T11:52:10;6.20;;;2.63;;
239;SDS011;104;53.590;10.004;2022-11-18T11:54:43;5.93;;;3.50;;
239;SDS011;104;53.590;10.004;2022-11-18T11:57:30;12.57;;;3.53;;
239;SDS011;104;53.590;10.004;2022-11-18T12:00:07;12.60;;;3.90;;
239;SDS011;104;53.590;10.004;2022-11-18T12:05:36;3.73;;;2.83;;
239;SDS011;104;53.590;10.004;2022-11-18T12:08:14;7.40;;;4.53;;
239;SDS011;104;53.590;10.004;2022-11-18T12:10:49;5.87;;;3.40;;
239;SDS011;104;53.590;10.004;2022-11-18T12:16:20;6.40;;;3.00;;
239;SDS011;104;53.590;10.004;2022-11-18T12:18:53;5.00;;;3.40;;
239;SDS011;104;53.590;10.004;2022-11-18T12:24:25;3.50;;;2.90;;
239;SDS011;104;53.590;10.004;2022-11-18T12:27:01;3.47;;;3.30;;
239;SDS011;104;53.590;10.004;2022-11-18T12:29:39;4.00;;;3.20;;
239;SDS011;104;53.590;10.004;2022-11-18T12:32:33;5.23;;;3.80;;
239;SDS011;104;53.590;10.004;2022-11-18T12:35:21;6.17;;;3.93;;
239;SDS011;104;53.590;10.004;2022-11-18T12:37:57;6.70;;;3.80;;
239;SDS011;104;53.590;10.004;2022-11-18T12:40:40;5.13;;;4.20;;
239;SDS011;104;53.590;10.004;2022-11-18T12:46:51;5.63;;;3.90;;
239;SDS011;104;53.590;10.004;2022-11-18T12:52:46;8.20;;;4.70;;
239;SDS011;104;53.590;10.004;2022-11-18T12:55:20;6.20;;;4.20;;
239;SDS011;104;53.590;10.004;2022-11-18T12:57:51;4.80;;;4.30;;
239;SDS011;104;53.590;10.004;2022-11-18T13:00:32;5.47;;;4.00;;
239;SDS011;104;53.590;10.004;2022-11-18T13:03:24;11.63;;;4.50;;
239;SDS011;104;53.590;10.004;2022-11-18T13:05:58;6.70;;;4.50;;
239;SDS011;104;53.590;10.004;2022-11-18T13:08:39;9.07;;;5.20;;
239;SDS011;104;53.590;10.004;2022-11-18T13:11:21;10.40;;;6.40;;
239;SDS011;104;53.590;10.004;2022-11-18T13:14:11;9.97;;;6.63;;
239;SDS011;104;53.590;10.004;2022-11-18T13:16:58;8.50;;;5.50;;
239;SDS011;104;53.590;10.004;2022-11-18T13:19:54;9.80;;;5.97;;
239;SDS011;104;53.590;10.004;2022-11-18T13:22:35;7.23;;;5.07;;
239;SDS011;104;53.590;10.004;2022-11-18T13:25:21;9.40;;;4.80;;
239;SDS011;104;53.590;10.004;2022-11-18T13:28:05;7.20;;;4.37;;
239;SDS011;104;53.590;10.004;2022-11-18T13:30:36;7.73;;;4.80;;
239;SDS011;104;53.590;10.004;2022-11-18T13:33:12;8.40;;;4.60;;
239;SDS011;104;53.590;10.004;2022-11-18T13:35:59;5.33;;;3.80;;
239;SDS011;104;53.590;10.004;2022-11-18T13:38:40;6.10;;;3.83;;
239;SDS011;104;53.590;10.004;2022-11-18T13:41:33;10.23;;;4.47;;
239;SDS011;104;53.590;10.004;2022-11-18T13:44:16;5.10;;;4.20;;
239;SDS011;104;53.590;10.004;2022-11-18T13:46:49;10.33;;;4.07;;
239;SDS011;104;53.590;10.004;2022-11-18T13:49:19;7.20;;;4.37;;
239;SDS011;104;53.590;10.004;2022-11-18T13:51:50;7.80;;;5.27;;
239;SDS011;104;53.590;10.004;2022-11-18T13:54:19;6.50;;;4.67;;
239;SDS011;104;53.590;10.004;2022-11-18T13:56:50;5.43;;;3.60;;
239;SDS011;104;53.590;10.004;2022-11-18T13:59:19;10.23;;;4.23;;
239;SDS011;104;53.590;10.004;2022-11-18T14:01:59;5.80;;;4.17;;
239;SDS011;104;53.590;10.004;2022-11-18T14:04:34;6.30;;;4.70;;
239;SDS011;104;53.590;10.004;2022-11-18T14:10:17;8.23;;;5.50;;
239;SDS011;104;53.590;10.004;2022-11-18T14:13:16;9.87;;;4.80;;
239;SDS011;104;53.590;10.004;2022-11-18T14:15:46;5.77;;;4.53;;
239;SDS011;104;53.590;10.004;2022-11-18T14:18:31;7.30;;;4.40;;
239;SDS011;104;53.590;10.004;2022-11-18T14:21:24;4.80;;;3.77;;
239;SDS011;104;53.590;10.004;2022-11-18T14:24:17;5.87;;;3.80;;
239;SDS011;104;53.590;10.004;2022-11-18T14:29:53;8.63;;;3.70;;
239;SDS011;104;53.590;10.004;2022-11-18T14:32:20;8.17;;;4.00;;
239;SDS011;104;53.590;10.004;2022-11-18T14:34:56;6.77;;;4.00;;
239;SDS011;104;53.590;10.004;2022-11-18T14:37:25;5.63;;;4.07;;
239;SDS011;104;53.590;10.004;2022-11-18T14:40:04;6.30;;;3.73;;
239;SDS011;104;53.590;10.004;2022-11-18T14:42:32;6.20;;;4.30;;
239;SDS011;104;53.590;10.004;2022-11-18T14:45:04;5.37;;;4.20;;
239;SDS011;104;53.590;10.004;2022-11-18T14:47:32;8.90;;;4.00;;
239;SDS011;104;53.590;10.004;2022-11-18T14:50:00;8.20;;;5.33;;
239;SDS011;104;53.590;10.004;2022-11-18T14:52:35;6.60;;;5.03;;
239;SDS011;104;53.590;10.004;2022-11-18T15:22:09;6.63;;;3.83;;
239;SDS011;104;53.590;10.004;2022-11-18T15:24:38;4.37;;;3.97;;
239;SDS011;104;53.590;10.004;2022-11-18T15:27:08;3.53;;;3.37;;
239;SDS011;104;53.590;10.004;2022-11-18T15:29:36;6.17;;;3.80;;
239;SDS011;104;53.590;10.004;2022-11-18T15:32:14;7.60;;;3.60;;
239;SDS011;104;53.590;10.004;2022-11-18T15:34:42;11.03;;;5.90;;
239;SDS011;104;53.590;10.004;2022-11-18T15:37:19;4.93;;;4.20;;
239;SDS011;104;53.590;10.004;2022-11-18T15:39:47;4.83;;;4.10;;
239;SDS011;104;53.590;10.004;2022-11-18T15:42:31;5.47;;;3.80;;
239;SDS011;104;53.590;10.004;2022-11-18T15:45:16;5.97;;;4.37;;
239;SDS011;104;53.590;10.004;2022-11-18T16:24:11;8.77;;;4.90;;
239;SDS011;104;53.590;10.004;2022-11-18T16:26:40;7.27;;;5.00;;
239;SDS011;104;53.590;10.004;2022-11-18T16:29:08;8.73;;;5.03;;
239;SDS011;104;53.590;10.004;2022-11-18T16:31:36;9.53;;;5.77;;
239;SDS011;104;53.590;10.004;2022-11-18T16:34:08;7.83;;;5.57;;
239;SDS011;104;53.590;10.004;2022-11-18T16:36:38;7.70;;;5.60;;
239;SDS011;104;53.590;10.004;2022-11-18T16:39:07;9.23;;;6.57;;
239;SDS011;104;53.590;10.004;2022-11-18T16:41:37;9.50;;;6.80;;
239;SDS011;104;53.590;10.004;2022-11-18T16:44:05;9.07;;;6.20;;
239;SDS011;104;53.590;10.004;2022-11-18T16:46:34;9.67;;;6.83;;
239;SDS011;104;53.590;10.004;2022-11-18T16:49:03;11.50;;;7.63;;
239;SDS011;104;53.590;10.004;2022-11-18T16:51:31;11.47;;;7.20;;
239;SDS011;104;53.590;10.004;2022-11-18T16:54:00;14.67;;;8.80;;
239;SDS011;104;53.590;10.004;2022-11-18T16:56:29;12.33;;;8.00;;
239;SDS011;104;53.590;10.004;2022-11-18T16:59:00;9.80;;;6.80;;
239;SDS011;104;53.590;10.004;2022-11-18T17:01:28;12.93;;;7.93;;
239;SDS011;104;53.590;10.004;2022-11-18T17:03:57;13.73;;;7.90;;
239;SDS011;104;53.590;10.004;2022-11-18T17:06:26;12.97;;;8.57;;
239;SDS011;104;53.590;10.004;2022-11-18T17:08:54;11.93;;;8.13;;
239;SDS011;104;53.590;10.004;2022-11-18T17:11:23;15.87;;;8.57;;
239;SDS011;104;53.590;10.004;2022-11-18T17:13:50;13.97;;;9.13;;
239;SDS011;104;53.590;10.004;2022-11-18T17:16:19;13.67;;;8.93;;
239;SDS011;104;53.590;10.004;2022-11-18T17:18:47;13.13;;;8.80;;
239;SDS011;104;53.590;10.004;2022-11-18T17:21:19;12.30;;;8.07;;
239;SDS011;104;53.590;10.004;2022-11-18T17:23:47;13.23;;;7.87;;
239;SDS011;104;53.590;10.004;2022-11-18T17:26:15;12.70;;;7.73;;
239;SDS011;104;53.590;10.004;2022-11-18T17:28:44;12.43;;;7.30;;
239;SDS011;104;53.590;10.004;2022-11-18T17:31:11;11.97;;;7.93;;
239;SDS011;104;53.590;10.004;2022-11-18T17:33:40;14.27;;;7.90;;
239;SDS011;104;53.590;10.004;2022-11-18T17:36:08;11.87;;;7.50;;
239;SDS011;104;53.590;10.004;2022-11-18T17:38:37;11.80;;;6.70;;
239;SDS011;104;53.590;10.004;2022-11-18T17:41:06;11.87;;;7.30;;
239;SDS011;104;53.590;10.004;2022-11-18T17:43:34;11.40;;;7.23;;
239;SDS011;104;53.590;10.004;2022-11-18T17:46:01;10.90;;;7.43;;
239;SDS011;104;53.590;10.004;2022-11-18T17:48:29;9.97;;;7.13;;
239;SDS011;104;53.590;10.004;2022-11-18T17:51:03;10.10;;;7.90;;
239;SDS011;104;53.590;10.004;2022-11-18T17:53:31;12.50;;;7.93;;
239;SDS011;104;53.590;10.004;2022-11-18T17:55:58;7.17;;;5.60;;
239;SDS011;104;53.590;10.004;2022-11-18T17:58:25;7.67;;;5.10;;
239;SDS011;104;53.590;10.004;2022-11-18T18:00:52;5.40;;;4.37;;
239;SDS011;104;53.590;10.004;2022-11-18T18:03:19;6.57;;;4.53;;
239;SDS011;104;53.590;10.004;2022-11-18T18:05:47;5.80;;;4.50;;
239;SDS011;104;53.590;10.004;2022-11-18T18:08:15;6.37;;;3.87;;
239;SDS011;104;53.590;10.004;2022-11-18T18:10:43;5.27;;;4.10;;
239;SDS011;104;53.590;10.004;2022-11-18T18:13:10;5.90;;;4.07;;
239;SDS011;104;53.590;10.004;2022-11-18T18:15:58;7.47;;;3.90;;
239;SDS011;104;53.590;10.004;2022-11-18T18:18:26;5.03;;;3.77;;
239;SDS011;104;53.590;10.004;2022-11-18T18:20:54;6.10;;;4.00;;
239;SDS011;104;53.590;10.004;2022-11-18T18:23:23;9.10;;;4.10;;
239;SDS011;104;53.590;10.004;2022-11-18T18:25:50;5.43;;;4.13;;
239;SDS011;104;53.590;10.004;2022-11-18T18:28:17;3.33;;;3.13;;
239;SDS011;104;53.590;10.004;2022-11-18T18:30:45;5.10;;;3.37;;
239;SDS011;104;53.590;10.004;2022-11-18T18:33:12;4.97;;;3.47;;
239;SDS011;104;53.590;10.004;2022-11-18T18:35:39;4.67;;;3.27;;
239;SDS011;104;53.590;10.004;2022-11-18T18:38:07;3.50;;;3.03;;
239;SDS011;104;53.590;10.004;2022-11-18T18:40:36;4.00;;;2.93;;
239;SDS011;104;53.590;10.004;2022-11-18T18:43:03;5.50;;;3.67;;
239;SDS011;104;53.590;10.004;2022-11-18T18:45:30;6.63;;;4.17;;
239;SDS011;104;53.590;10.004;2022-11-18T18:48:15;4.00;;;3.63;;
239;SDS011;104;53.590;10.004;2022-11-18T18:50:42;7.70;;;3.33;;
239;SDS011;104;53.590;10.004;2022-11-18T18:53:09;4.77;;;3.20;;
239;SDS011;104;53.590;10.004;2022-11-18T18:55:37;8.20;;;4.30;;
239;SDS011;104;53.590;10.004;2022-11-18T18:58:04;7.00;;;4.63;;
239;SDS011;104;53.590;10.004;2022-11-18T19:00:31;9.43;;;4.60;;
239;SDS011;104;53.590;10.004;2022-11-18T19:02:58;6.90;;;4.43;;
239;SDS011;104;53.590;10.004;2022-11-18T19:05:26;4.63;;;3.20;;
239;SDS011;104;53.590;10.004;2022-11-18T19:07:53;4.10;;;3.37;;
239;SDS011;104;53.590;10.004;2022-11-18T19:10:20;10.13;;;4.53;;
239;SDS011;104;53.590;10.004;2022-11-18T19:12:49;7.97;;;4.40;;
239;SDS011;104;53.590;10.004;2022-11-18T19:15:16;9.60;;;3.67;;
239;SDS011;104;53.590;10.004;2022-11-18T19:17:44;14.60;;;8.90;;
239;SDS011;104;53.590;10.004;2022-11-18T19:20:12;4.87;;;3.63;;
239;SDS011;104;53.590;10.004;2022-11-18T19:23:00;8.10;;;4.40;;
239;SDS011;104;53.590;10.004;2022-11-18T19:25:28;4.43;;;3.47;;
239;SDS011;104;53.590;10.004;2022-11-18T19:28:00;5.20;;;4.00;;
239;SDS011;104;53.590;10.004;2022-11-18T19:30:27;5.07;;;3.73;;
239;SDS011;104;53.590;10.004;2022-11-18T19:32:56;6.07;;;3.93;;
239;SDS011;104;53.590;10.004;2022-11-18T19:35:23;5.70;;;4.30;;
239;SDS011;104;53.590;10.004;2022-11-18T19:37:50;16.47;;;8.60;;
239;SDS011;104;53.590;10.004;2022-11-18T19:40:17;10.60;;;4.10;;
239;SDS011;104;53.590;10.004;2022-11-18T19:42:45;7.03;;;4.63;;
239;SDS011;104;53.590;10.004;2022-11-18T19:45:13;9.73;;;4.63;;
239;SDS011;104;53.590;10.004;2022-11-18T19:47:40;9.40;;;4.30;;
239;SDS011;104;53.590;10.004;2022-11-18T19:50:08;7.13;;;3.63;;
239;SDS011;104;53.590;10.004;2022-11-18T19:52:35;5.50;;;4.03;;
239;SDS011;104;53.590;10.004;2022-11-18T19:55:02;5.90;;;4.07;;
239;SDS011;104;53.590;10.004;2022-11-18T19:57:30;6.10;;;4.20;;
239;SDS011;104;53.590;10.004;2022-11-18T19:59:57;7.40;;;5.17;;
239;SDS011;104;53.590;10.004;2022-11-18T20:02:26;9.07;;;5.67;;
239;SDS011;104;53.590;10.004;2022-11-18T20:04:58;5.50;;;4.00;;
239;SDS011;104;53.590;10.004;2022-11-18T20:07:43;5.70;;;4.23;;
239;SDS011;104;53.590;10.004;2022-11-18T20:10:10;7.00;;;4.97;;
239;SDS011;104;53.590;10.004;2022-11-18T20:12:37;6.97;;;4.57;;
239;SDS011;104;53.590;10.004;2022-11-18T20:15:05;7.70;;;4.77;;
239;SDS011;104;53.590;10.004;2022-11-18T20:17:34;8.20;;;5.03;;